Time;durP1;ratioP1;P1;durP2;ratioP2;P2;SDS_P1;SDS_P2;PMS_P1;PMS_P2;Temp;Humidity;BMP_temperature;BMP_pressure;BME280_temperature;BME280_humidity;BME280_pressure;Samples;Min_cycle;Max_cycle;Signal;HPM_P1;HPM_P2
2022/05/26 00:01:25;;;;;;;12.45;8.68;;;;;;;24.74;60.26;101360.41;4964900;28;20532;-82
2022/05/26 00:03:53;;;;;;;13.18;8.48;;;;;;;24.74;60.59;101365.81;4964955;28;20121;-84
2022/05/26 00:06:23;;;;;;;9.35;8.35;;;;;;;24.66;61.01;101344.31;4965757;28;20412;-80
2022/05/26 00:08:50;;;;;;;17.60;9.13;;;;;;;24.06;60.85;101258.38;4964972;28;20075;-82
2022/05/26 00:11:25;;;;;;;9.90;8.85;;;;;;;23.49;61.14;101170.34;4964843;28;20138;-82
2022/05/26 00:13:55;;;;;;;11.43;8.27;;;;;;;24.48;60.70;101331.41;4964651;28;20058;-82
2022/05/26 00:16:22;;;;;;;11.57;8.15;;;;;;;24.42;61.18;101326.78;4950704;28;20055;-80
2022/05/26 00:18:49;;;;;;;9.77;7.82;;;;;;;24.17;61.01;101285.91;4965843;28;20067;-82
2022/05/26 00:21:16;;;;;;;10.57;8.60;;;;;;;24.51;61.31;101337.22;4965117;28;20172;-83
2022/05/26 00:23:43;;;;;;;13.60;9.07;;;;;;;24.40;61.33;101318.88;4964971;28;20470;-82
2022/05/26 00:26:09;;;;;;;12.23;8.32;;;;;;;24.39;61.86;101325.31;4965077;28;20261;-82
2022/05/26 00:28:37;;;;;;;14.18;9.13;;;;;;;24.20;61.58;101290.91;4964502;28;20047;-80
2022/05/26 00:31:04;;;;;;;13.00;8.57;;;;;;;23.78;61.37;101228.75;4964452;28;20135;-82
2022/05/26 00:33:31;;;;;;;16.65;8.75;;;;;;;24.22;61.67;101311.34;4964227;28;20528;-80
2022/05/26 00:36:03;;;;;;;14.65;10.40;;;;;;;24.41;61.07;101333.25;4964389;28;20055;-82
2022/05/26 00:38:30;;;;;;;12.23;9.45;;;;;;;24.46;60.62;101328.91;4949695;28;20138;-79
2022/05/26 00:41:03;;;;;;;12.23;9.18;;;;;;;24.22;60.98;101294.25;4949703;28;20051;-82
2022/05/26 00:43:30;;;;;;;14.48;9.05;;;;;;;23.43;60.27;101176.63;4964591;28;20059;-82
2022/05/26 00:46:07;;;;;;;13.95;9.40;;;;;;;24.35;60.51;101315.94;4949075;28;20055;-81
2022/05/26 00:48:46;;;;;;;13.77;10.05;;;;;;;24.07;59.82;101270.06;4964158;28;20493;-82
2022/05/26 00:51:15;;;;;;;17.08;9.40;;;;;;;24.38;59.85;101331.81;4964259;28;20258;-81
2022/05/26 00:53:51;;;;;;;11.82;10.07;;;;;;;22.94;60.76;101097.38;4964250;28;20133;-82
2022/05/26 00:56:28;;;;;;;10.95;8.63;;;;;;;24.03;60.98;101285.94;4963787;28;20059;-83
2022/05/26 00:59:00;;;;;;;17.90;10.07;;;;;;;24.29;60.76;101336.59;4949739;28;20391;-81
2022/05/26 01:01:27;;;;;;;10.95;9.18;;;;;;;24.17;61.27;101313.03;4963942;28;20102;-82
2022/05/26 01:04:00;;;;;;;10.10;8.93;;;;;;;24.07;61.26;101298.00;4947561;29;20422;-80
2022/05/26 01:07:08;;;;;;;14.55;9.23;;;;;;;24.28;60.66;101342.25;4949012;28;20130;-81
2022/05/26 01:09:34;;;;;;;14.40;9.55;;;;;;;23.96;61.17;101298.66;4947454;28;20176;-80
2022/05/26 01:12:02;;;;;;;13.27;9.10;;;;;;;23.47;61.01;101218.47;4948673;29;20047;-80
2022/05/26 01:14:42;;;;;;;14.15;9.00;;;;;;;23.86;60.66;101274.66;4947298;29;20051;-80
2022/05/26 01:17:46;;;;;;;13.82;10.07;;;;;;;24.17;60.57;101334.72;4948655;28;20186;-82
2022/05/26 01:20:23;;;;;;;13.55;9.82;;;;;;;23.60;60.76;101264.59;4947235;29;20418;-81
2022/05/26 01:23:28;;;;;;;15.98;9.75;;;;;;;24.14;61.42;101343.28;4928417;29;20074;-82
2022/05/26 01:26:22;;;;;;;15.93;10.63;;;;;;;24.13;60.51;101347.03;4928511;29;20070;-82
2022/05/26 01:29:23;;;;;;;17.50;10.20;;;;;;;24.15;59.61;101344.94;4929896;29;20113;-82
2022/05/26 01:32:11;;;;;;;14.43;10.35;;;;;;;22.63;59.42;101100.63;4928452;29;20052;-82
2022/05/26 01:34:42;;;;;;;17.08;9.57;;;;;;;24.25;59.43;101348.09;4944588;29;20438;-81
2022/05/26 01:37:22;;;;;;;14.32;10.35;;;;;;;24.26;59.41;101345.16;4928561;29;20528;-81
2022/05/26 01:40:28;;;;;;;14.35;10.55;;;;;;;23.66;60.11;101263.75;4928916;29;20063;-81
2022/05/26 01:43:07;;;;;;;15.20;10.57;;;;;;;24.19;60.01;101357.88;4929969;29;20402;-81
2022/05/26 01:45:43;;;;;;;13.68;10.50;;;;;;;23.95;60.19;101315.94;4928618;29;20090;-82
2022/05/26 01:48:14;;;;;;;14.63;10.10;;;;;;;23.75;60.25;101293.41;4929922;29;20139;-83
2022/05/26 01:50:53;;;;;;;13.98;10.95;;;;;;;24.14;59.82;101362.28;4934922;28;20115;-81
2022/05/26 01:53:38;;;;;;;13.52;11.07;;;;;;;24.09;60.14;101352.06;4950591;29;20058;-82
2022/05/26 01:56:15;;;;;;;15.05;9.75;;;;;;;24.10;60.30;101360.00;4957920;28;20054;-81
2022/05/26 01:58:46;;;;;;;17.17;10.20;;;;;;;24.04;59.97;101352.66;4966516;29;20103;-83
2022/05/26 02:01:20;;;;;;;16.08;10.85;;;;;;;23.88;60.31;101334.09;4960573;29;20051;-82
2022/05/26 02:03:49;;;;;;;17.50;10.82;;;;;;;23.87;60.42;101345.97;4949500;28;20062;-82
2022/05/26 02:06:24;;;;;;;14.13;10.25;;;;;;;23.83;59.69;101323.84;4949666;28;20059;-81
2022/05/26 02:09:12;;;;;;;11.90;10.70;;;;;;;24.08;59.67;101350.41;4949036;29;20651;-81
2022/05/26 02:11:56;;;;;;;12.20;10.45;;;;;;;24.01;59.25;101336.81;4949228;28;20473;-82
2022/05/26 02:14:30;;;;;;;10.52;9.43;;;;;;;23.91;60.01;101314.72;4947058;29;20533;-82
2022/05/26 02:17:31;;;;;;;15.93;9.90;;;;;;;24.08;60.64;101362.06;4947069;29;20127;-82
2022/05/26 02:20:29;;;;;;;16.02;9.57;;;;;;;24.05;60.44;101359.75;4936735;29;20051;-82
2022/05/26 02:23:17;;;;;;;15.68;9.80;;;;;;;23.92;60.69;101348.91;4925618;29;20139;-82
2022/05/26 02:25:44;;;;;;;14.60;9.52;;;;;;;23.30;60.96;101249.72;4927959;29;20044;-83
2022/05/26 02:28:12;;;;;;;14.23;10.35;;;;;;;23.37;60.96;101280.38;4927774;29;20497;-82
2022/05/26 02:30:41;;;;;;;15.80;10.27;;;;;;;23.88;61.13;101367.47;4929107;29;20059;-81
2022/05/26 02:33:12;;;;;;;15.68;9.82;;;;;;;23.41;60.61;101293.31;4928443;29;20056;-80
2022/05/26 02:35:46;;;;;;;13.23;9.45;;;;;;;23.33;59.45;101257.47;4927658;29;20450;-81
2022/05/26 02:38:21;;;;;;;13.90;11.30;;;;;;;23.54;59.17;101275.41;4912378;29;20119;-82
2022/05/26 02:40:53;;;;;;;12.07;10.13;;;;;;;23.55;58.88;101277.94;4928215;29;20406;-81
2022/05/26 02:43:23;;;;;;;12.65;9.50;;;;;;;24.02;59.76;101362.88;4927859;29;20052;-82
2022/05/26 02:46:10;;;;;;;15.00;10.35;;;;;;;23.83;60.30;101326.56;4929142;29;20151;-81
2022/05/26 02:48:59;;;;;;;13.68;9.65;;;;;;;23.95;60.67;101348.47;4927579;29;20051;-82
2022/05/26 02:51:53;;;;;;;10.23;9.13;;;;;;;23.99;60.09;101348.91;4927790;29;20118;-81
2022/05/26 02:54:31;;;;;;;15.20;10.95;;;;;;;23.95;60.39;101337.63;4948167;28;20066;-81
2022/05/26 02:57:07;;;;;;;14.75;9.90;;;;;;;23.99;60.41;101338.91;4946948;29;20129;-81
2022/05/26 02:59:59;;;;;;;18.25;10.27;;;;;;;23.74;60.84;101308.00;4946783;29;20513;-80
2022/05/26 03:02:35;;;;;;;;;;;;;;;23.83;61.18;101352.84;4948259;28;20051;-81
2022/05/26 03:05:09;;;;;;;11.45;10.25;;;;;;;23.79;61.53;101365.16;4946523;29;19929;-82
2022/05/26 03:07:40;;;;;;;14.60;11.05;;;;;;;23.63;61.14;101333.81;4946662;28;20405;-81
2022/05/26 03:10:08;;;;;;;16.33;11.07;;;;;;;23.34;60.75;101286.22;4952322;29;20058;-81
2022/05/26 03:12:36;;;;;;;16.35;10.52;;;;;;;23.03;60.91;101246.94;4951177;29;20047;-81
2022/05/26 03:15:06;;;;;;;14.55;10.52;;;;;;;23.36;60.67;101311.22;4950805;28;20063;-82
2022/05/26 03:17:35;;;;;;;14.35;10.60;;;;;;;22.98;61.04;101260.25;4951519;28;20058;-82
2022/05/26 03:20:03;;;;;;;11.75;10.18;;;;;;;22.42;60.76;101168.38;4950280;29;20110;-80
2022/05/26 03:22:29;;;;;;;12.68;10.90;;;;;;;23.25;60.94;101299.09;4950132;29;20099;-81
2022/05/26 03:24:56;;;;;;;15.93;10.45;;;;;;;23.62;61.05;101370.91;4949985;29;20093;-82
2022/05/26 03:27:23;;;;;;;14.45;10.45;;;;;;;23.65;61.23;101383.22;4950087;29;20106;-82
2022/05/26 03:29:49;;;;;;;14.15;10.70;;;;;;;23.44;60.93;101351.66;4949903;29;20490;-82
2022/05/26 03:32:19;;;;;;;12.05;10.70;;;;;;;23.62;61.10;101386.34;4965844;28;20171;-82
2022/05/26 03:43:01;;;;;;;10.82;9.70;;;;;;;23.35;61.65;101379.97;4950973;29;20062;-80
2022/05/26 03:45:33;;;;;;;12.98;10.50;;;;;;;23.04;61.63;101335.28;4949865;29;20311;-81
2022/05/26 03:48:01;;;;;;;13.95;10.00;;;;;;;23.48;61.58;101407.13;4950137;28;20556;-81
2022/05/26 03:50:28;;;;;;;14.30;9.95;;;;;;;22.98;61.78;101333.34;4949717;29;20449;-80
2022/05/26 03:52:55;;;;;;;14.25;10.32;;;;;;;23.30;61.86;101390.59;4949695;29;20102;-80
2022/05/26 03:55:23;;;;;;;19.13;10.63;;;;;;;23.19;61.82;101373.88;4950285;29;20051;-81
2022/05/26 03:57:51;;;;;;;14.98;9.68;;;;;;;23.42;61.98;101416.94;4950255;29;20368;-82
2022/05/26 04:00:21;;;;;;;13.02;9.38;;;;;;;23.42;62.25;101426.91;4950689;29;20078;-82
2022/05/26 04:02:48;;;;;;;15.13;9.93;;;;;;;23.41;62.40;101431.50;4950185;29;20129;-80
2022/05/26 04:05:15;;;;;;;14.88;10.60;;;;;;;22.80;62.68;101329.28;4951625;29;20122;-81
2022/05/26 04:07:42;;;;;;;14.23;9.80;;;;;;;22.82;62.64;101337.22;4952025;29;20113;-80
2022/05/26 04:10:11;;;;;;;18.67;10.45;;;;;;;23.42;62.22;101429.59;4953246;29;20089;-81
2022/05/26 04:12:38;;;;;;;13.10;10.23;;;;;;;23.50;61.72;101431.31;4965688;28;20487;-80
2022/05/26 04:15:06;;;;;;;12.95;9.88;;;;;;;23.40;62.00;101416.28;4949982;29;20051;-81
2022/05/26 04:17:33;;;;;;;12.05;10.85;;;;;;;23.31;62.06;101419.38;4949123;29;20051;-81
2022/05/26 04:20:00;;;;;;;20.98;10.27;;;;;;;23.41;62.40;101433.38;4948173;28;20055;-80
2022/05/26 04:22:27;;;;;;;19.55;10.77;;;;;;;23.40;62.01;101424.41;4950462;28;20124;-81
2022/05/26 04:24:58;;;;;;;13.00;10.10;;;;;;;22.95;61.33;101347.25;4965229;28;20047;-82
2022/05/26 04:27:27;;;;;;;;;;;;;;;23.38;62.00;101433.78;4949435;28;20043;-80
2022/05/26 04:29:54;;;;;;;16.30;10.27;;;;;;;23.12;62.08;101399.25;4948614;28;20154;-82
2022/05/26 04:32:25;;;;;;;14.02;10.50;;;;;;;23.25;61.62;101411.00;4948768;28;20062;-82
2022/05/26 04:34:52;;;;;;;15.02;10.60;;;;;;;23.32;62.13;101429.97;4949700;28;20055;-82
2022/05/26 04:37:22;;;;;;;14.95;10.60;;;;;;;23.28;61.97;101433.28;4964670;28;20047;-81
2022/05/26 04:39:50;;;;;;;11.57;9.80;;;;;;;23.18;61.97;101410.13;4948751;29;20055;-79
2022/05/26 04:42:18;;;;;;;11.30;10.10;;;;;;;23.24;62.42;101433.69;4964408;28;20087;-83
2022/05/26 04:44:46;;;;;;;16.00;10.50;;;;;;;23.22;62.70;101434.94;4964461;28;20437;-81
2022/05/26 04:47:14;;;;;;;21.13;11.20;;;;;;;22.90;62.72;101371.41;4949864;28;20051;-81
2022/05/26 04:49:41;;;;;;;12.55;9.77;;;;;;;23.29;62.05;101441.22;4947382;28;20416;-81
2022/05/26 04:52:18;;;;;;;16.42;11.25;;;;;;;23.34;62.37;101444.16;4963731;28;20058;-81
2022/05/26 04:54:45;;;;;;;13.10;10.65;;;;;;;23.43;62.38;101463.81;4949744;28;20461;-82
2022/05/26 04:57:14;;;;;;;14.50;10.27;;;;;;;23.31;61.75;101444.56;4952453;28;20112;-80
2022/05/26 04:59:41;;;;;;;19.50;11.63;;;;;;;23.49;61.41;101473.84;4953182;29;20123;-81
2022/05/26 05:02:13;;;;;;;13.63;10.40;;;;;;;23.54;61.91;101476.78;4968237;29;20052;-84
2022/05/26 05:04:42;;;;;;;13.70;10.95;;;;;;;23.56;61.90;101492.84;4969386;28;20054;-81
2022/05/26 05:07:09;;;;;;;16.02;10.27;;;;;;;22.83;61.91;101368.66;4964527;28;20450;-79
2022/05/26 05:09:38;;;;;;;11.63;9.75;;;;;;;22.88;62.51;101378.88;4948077;28;20409;-80
2022/05/26 05:12:06;;;;;;;13.85;10.77;;;;;;;23.39;62.33;101462.53;4949149;28;20059;-80
2022/05/26 05:14:39;;;;;;;14.55;10.32;;;;;;;23.56;62.32;101490.97;4947437;28;20088;-81
2022/05/26 05:17:05;;;;;;;12.35;11.07;;;;;;;23.58;61.87;101497.03;4947251;29;20051;-81
2022/05/26 05:19:32;;;;;;;14.43;11.10;;;;;;;23.24;61.68;101441.81;4948653;28;20059;-82
2022/05/26 05:22:04;;;;;;;14.50;11.45;;;;;;;22.22;61.66;101277.28;4950155;28;20048;-81
2022/05/26 05:24:40;;;;;;;18.85;10.88;;;;;;;22.92;61.38;101374.75;4955448;28;20138;-82
2022/05/26 05:27:19;;;;;;;15.43;10.57;;;;;;;23.50;61.24;101475.53;4948139;28;20054;-83
2022/05/26 05:29:49;;;;;;;13.77;10.73;;;;;;;23.59;60.94;101485.16;4946553;29;20258;-81
2022/05/26 05:32:22;;;;;;;14.57;10.98;;;;;;;23.87;60.58;101533.06;4947573;28;20079;-82
2022/05/26 05:34:57;;;;;;;17.17;11.88;;;;;;;23.33;60.71;101449.81;4948191;28;20059;-82
2022/05/26 05:37:24;;;;;;;22.83;11.07;;;;;;;23.88;61.28;101537.44;4949337;29;20051;-83
2022/05/26 05:39:51;;;;;;;14.20;10.80;;;;;;;23.33;61.07;101453.34;4948735;28;20051;-82
2022/05/26 05:42:18;;;;;;;16.25;10.98;;;;;;;23.94;60.68;101544.78;4947482;29;20114;-82
2022/05/26 05:44:45;;;;;;;20.63;11.27;;;;;;;23.93;60.14;101529.53;4963630;28;20102;-81
2022/05/26 05:47:12;;;;;;;14.48;11.45;;;;;;;23.82;59.80;101509.25;4947482;29;20051;-81
2022/05/26 05:49:39;;;;;;;16.80;10.88;;;;;;;23.29;59.64;101407.88;4947635;29;20482;-81
2022/05/26 05:52:10;;;;;;;15.18;10.30;;;;;;;23.91;59.73;101504.53;4947730;28;20051;-81
2022/05/26 05:54:38;;;;;;;12.93;10.32;;;;;;;23.20;59.04;101393.66;4947225;29;20118;-81
2022/05/26 05:57:06;;;;;;;13.43;10.77;;;;;;;23.86;59.23;101510.53;4949824;28;20078;-81
2022/05/26 05:59:33;;;;;;;18.80;11.68;;;;;;;23.92;59.50;101511.59;4948168;29;20054;-81
2022/05/26 06:01:59;;;;;;;16.80;9.57;;;;;;;23.32;58.85;101407.47;4947533;29;20078;-82
2022/05/26 06:04:48;;;;;;;19.45;10.27;;;;;;;24.34;59.23;101580.19;4930867;29;20056;-81
2022/05/26 06:07:19;;;;;;;17.70;10.02;;;;;;;23.59;58.67;101454.50;4934781;29;20055;-79
2022/05/26 06:09:49;;;;;;;15.52;10.23;;;;;;;24.20;57.95;101548.63;4938629;29;20110;-81
2022/05/26 06:12:16;;;;;;;15.73;10.23;;;;;;;24.39;58.25;101572.25;4937612;28;20051;-81
2022/05/26 06:14:44;;;;;;;10.18;9.02;;;;;;;23.97;58.46;101497.44;4932116;29;20059;-78
2022/05/26 06:17:11;;;;;;;14.35;11.23;;;;;;;23.76;57.54;101463.16;4932290;29;20099;-78
2022/05/26 06:19:39;;;;;;;12.23;10.45;;;;;;;24.48;57.98;101584.63;4932084;29;20051;-81
2022/05/26 06:22:12;;;;;;;13.65;10.65;;;;;;;24.50;57.25;101590.72;4948583;29;20066;-81
2022/05/26 06:24:39;;;;;;;15.88;10.43;;;;;;;24.56;57.35;101590.94;4952108;28;20087;-80
2022/05/26 06:29:55;;;;;;;15.90;11.63;;;;;;;24.42;56.29;101555.59;4954191;28;20047;-80
2022/05/26 06:37:56;;;;;;;23.85;11.45;;;;;;;24.74;55.25;101592.00;4959354;28;20114;-81
2022/05/26 06:40:23;;;;;;;19.17;10.88;;;;;;;24.18;55.18;101493.75;4972515;28;20055;-79
2022/05/26 06:42:52;;;;;;;16.40;10.82;;;;;;;24.36;55.91;101512.16;4972157;28;20051;-80
2022/05/26 06:45:19;;;;;;;15.45;11.05;;;;;;;24.79;55.96;101593.28;4958004;28;20151;-81
2022/05/26 06:47:46;;;;;;;20.38;10.88;;;;;;;24.86;56.13;101589.53;4954927;28;20425;-79
2022/05/26 06:50:14;;;;;;;14.52;10.13;;;;;;;24.63;56.18;101561.91;4952796;29;20062;-81
2022/05/26 06:52:42;;;;;;;12.50;9.70;;;;;;;23.83;55.61;101428.75;4953258;28;20477;-80
2022/05/26 06:55:10;;;;;;;11.70;9.95;;;;;;;24.88;55.59;101608.31;4951915;29;20098;-81
2022/05/26 06:57:37;;;;;;;12.00;9.85;;;;;;;24.39;55.43;101519.88;4951843;29;20043;-81
2022/05/26 07:00:08;;;;;;;16.15;11.00;;;;;;;24.92;55.10;101599.53;4953430;28;20090;-82
2022/05/26 07:02:35;;;;;;;17.63;10.50;;;;;;;24.57;55.43;101546.47;4953256;29;20129;-81
2022/05/26 07:05:03;;;;;;;17.02;10.82;;;;;;;23.74;55.49;101409.16;4955629;28;20067;-81
2022/05/26 07:07:31;;;;;;;16.38;11.88;;;;;;;24.10;54.75;101457.63;4953983;29;20058;-80
2022/05/26 07:09:59;;;;;;;12.98;10.98;;;;;;;25.00;55.02;101616.69;4953995;29;20106;-81
2022/05/26 07:12:32;;;;;;;17.35;11.50;;;;;;;24.83;54.43;101611.69;4955081;28;20524;-82
2022/05/26 07:14:59;;;;;;;17.10;11.45;;;;;;;24.87;54.77;101628.38;4953791;29;20059;-80
2022/05/26 07:17:26;;;;;;;17.33;11.35;;;;;;;24.86;55.58;101613.13;4953746;29;20094;-81
2022/05/26 07:19:53;;;;;;;17.02;12.18;;;;;;;24.08;55.85;101499.56;4954021;29;20062;-81
2022/05/26 07:22:23;;;;;;;15.90;12.30;;;;;;;24.85;56.25;101617.72;4953929;29;20046;-81
2022/05/26 07:24:51;;;;;;;17.92;12.40;;;;;;;24.91;56.76;101616.91;4953874;29;20455;-81
2022/05/26 07:27:19;;;;;;;20.88;14.57;;;;;;;24.74;57.25;101588.47;4954690;28;20129;-81
2022/05/26 07:29:53;;;;;;;20.92;13.20;;;;;;;24.99;57.35;101612.31;4953401;29;20094;-79
2022/05/26 07:32:21;;;;;;;23.50;14.02;;;;;;;25.03;57.61;101621.72;4953693;29;20078;-80
2022/05/26 07:34:48;;;;;;;17.13;13.93;;;;;;;25.08;57.22;101619.22;4953827;28;20058;-80
2022/05/26 07:42:46;;;;;;;15.32;13.43;;;;;;;24.80;57.04;101595.78;4954800;29;20199;-80
2022/05/26 07:45:13;;;;;;;15.90;13.65;;;;;;;24.75;56.30;101587.41;4954684;28;20051;-79
2022/05/26 07:47:40;;;;;;;21.55;13.38;;;;;;;24.91;56.10;101607.91;4953434;29;20110;-78
2022/05/26 07:50:11;;;;;;;15.82;14.23;;;;;;;24.99;55.72;101609.59;4954871;28;20043;-81
2022/05/26 07:52:38;;;;;;;25.65;14.43;;;;;;;24.50;55.79;101522.84;4953343;29;20043;-82
2022/05/26 07:55:06;;;;;;;18.17;13.85;;;;;;;25.06;55.82;101608.56;4953625;28;20051;-80
2022/05/26 07:57:33;;;;;;;21.67;14.50;;;;;;;25.07;55.44;101590.38;4952888;29;20384;-80
2022/05/26 08:00:00;;;;;;;17.42;13.82;;;;;;;25.15;55.49;101598.31;4952966;29;20058;-81
2022/05/26 08:02:27;;;;;;;27.65;15.70;;;;;;;25.21;55.33;101597.50;4952315;29;20071;-80
2022/05/26 08:04:54;;;;;;;18.30;13.75;;;;;;;25.41;55.34;101611.06;4952578;29;20183;-81
2022/05/26 08:07:22;;;;;;;21.35;14.60;;;;;;;24.39;55.57;101442.00;4952403;29;20059;-81
2022/05/26 08:09:49;;;;;;;20.23;15.77;;;;;;;25.44;55.60;101613.41;4953437;29;20055;-80
2022/05/26 08:12:16;;;;;;;17.15;15.40;;;;;;;24.60;54.96;101486.31;4953599;29;20446;-80
2022/05/26 08:14:44;;;;;;;20.13;15.57;;;;;;;25.44;55.04;101620.69;4953083;29;20059;-81
2022/05/26 08:17:13;;;;;;;20.70;15.27;;;;;;;24.97;54.82;101519.31;4952173;29;20047;-79
2022/05/26 08:19:41;;;;;;;15.68;13.73;;;;;;;25.62;54.47;101592.88;4951845;29;20304;-81
2022/05/26 08:22:08;;;;;;;21.52;14.80;;;;;;;25.50;54.30;101569.03;4951707;29;20391;-79
2022/05/26 08:24:34;;;;;;;22.13;15.48;;;;;;;25.79;54.41;101588.66;4951758;29;20386;-79
2022/05/26 08:27:01;;;;;;;21.92;18.15;;;;;;;25.48;55.17;101511.34;4953192;29;20098;-81
2022/05/26 08:29:28;;;;;;;20.77;17.98;;;;;;;25.68;55.54;101543.06;4953354;28;20466;-81
2022/05/26 08:31:55;;;;;;;25.60;18.98;;;;;;;25.02;55.82;101444.31;4951995;29;20048;-79
2022/05/26 08:34:21;;;;;;;26.48;19.42;;;;;;;25.33;55.52;101480.84;4951683;28;20090;-80
2022/05/26 08:36:48;;;;;;;26.50;19.70;;;;;;;25.42;55.31;101481.47;4952661;28;20130;-81
2022/05/26 08:39:18;;;;;;;24.25;19.67;;;;;;;26.20;55.68;101595.66;4951914;29;20582;-79
2022/05/26 08:41:48;;;;;;;25.33;20.35;;;;;;;25.57;55.67;101490.19;4952449;29;20135;-81
2022/05/26 08:44:29;;;;;;;22.92;20.50;;;;;;;25.98;56.18;101576.06;4951258;29;20133;-81
2022/05/26 08:47:30;;;;;;;28.13;22.70;;;;;;;25.93;55.98;101554.13;4953820;29;20055;-80
2022/05/26 08:50:21;;;;;;;30.70;23.40;;;;;;;26.36;57.05;101632.41;4957642;28;20051;-84
2022/05/26 08:52:52;;;;;;;26.23;21.73;;;;;;;26.43;56.48;101638.66;4956976;28;20430;-80
2022/05/26 08:55:27;;;;;;;31.15;23.33;;;;;;;26.31;57.01;101627.63;4960167;28;20053;-80
2022/05/26 08:58:07;;;;;;;30.85;23.83;;;;;;;26.40;56.58;101622.75;4964812;28;20055;-81
2022/05/26 09:00:37;;;;;;;32.30;24.52;;;;;;;26.22;57.15;101599.81;4964782;29;20058;-82
2022/05/26 09:03:30;;;;;;;32.40;25.57;;;;;;;25.07;57.00;101428.19;4964702;29;20134;-81
2022/05/26 09:06:10;;;;;;;44.30;26.25;;;;;;;26.31;57.18;101629.50;4966071;28;20051;-80
2022/05/26 09:14:41;;;;;;;35.65;25.13;;;;;;;26.38;57.05;101652.91;4952753;28;20055;-80
2022/05/26 09:17:13;;;;;;;35.38;25.95;;;;;;;26.36;57.59;101644.16;4951391;29;20047;-80
2022/05/26 09:19:42;;;;;;;33.47;25.00;;;;;;;26.12;58.07;101618.50;4952651;28;20119;-80
2022/05/26 09:22:29;;;;;;;34.58;26.58;;;;;;;26.32;58.65;101647.53;4951239;29;20478;-80
2022/05/26 09:24:58;;;;;;;33.78;26.70;;;;;;;24.83;57.96;101412.59;4966744;28;20486;-81
2022/05/26 09:27:36;;;;;;;28.98;24.88;;;;;;;26.29;57.62;101637.03;4950659;28;20565;-81
2022/05/26 09:30:29;;;;;;;33.42;24.95;;;;;;;26.32;56.74;101631.19;4950564;29;20059;-81
2022/05/26 09:32:56;;;;;;;35.67;28.02;;;;;;;25.25;57.13;101475.66;4950275;29;20493;-80
2022/05/26 09:35:26;;;;;;;32.53;27.17;;;;;;;26.34;57.86;101654.41;4950347;29;20439;-81
2022/05/26 09:38:02;;;;;;;37.97;26.33;;;;;;;26.09;57.66;101613.47;4950369;29;20058;-80
2022/05/26 09:40:35;;;;;;;37.60;30.65;;;;;;;26.36;57.79;101643.28;4951727;28;20410;-80
2022/05/26 09:43:09;;;;;;;41.53;29.60;;;;;;;26.21;57.75;101625.38;4950364;29;20438;-82
2022/05/26 09:45:46;;;;;;;40.95;30.75;;;;;;;26.52;57.59;101675.47;4950177;28;20135;-80
2022/05/26 09:48:26;;;;;;;38.45;30.90;;;;;;;26.33;58.20;101632.84;4949475;29;20070;-80
2022/05/26 09:51:03;;;;;;;35.50;31.52;;;;;;;26.73;57.65;101688.00;4949765;29;20480;-82
2022/05/26 09:53:34;;;;;;;42.10;31.17;;;;;;;26.50;57.46;101638.63;4950241;29;20051;-80
2022/05/26 09:56:01;;;;;;;38.25;27.50;;;;;;;25.87;56.56;101553.06;4949594;29;20425;-80
2022/05/26 09:58:39;;;;;;;31.50;25.70;;;;;;;26.77;54.57;101672.84;4949324;29;20137;-82
2022/05/26 10:01:35;;;;;;;33.28;24.60;;;;;;;26.88;54.29;101706.75;4949446;29;20093;-81
2022/05/26 10:04:05;;;;;;;34.85;27.17;;;;;;;25.88;54.88;101537.59;4948723;29;20055;-81
2022/05/26 10:06:57;;;;;;;30.83;22.92;;;;;;;26.94;53.48;101705.88;4948342;29;20051;-81
2022/05/26 10:09:32;;;;;;;;;;;;;;;26.83;52.16;101709.31;4950847;29;20066;-81
2022/05/26 10:12:15;;;;;;;25.67;21.38;;;;;;;26.77;53.12;101704.72;4952171;29;19978;-82
2022/05/26 10:15:12;;;;;;;28.67;20.13;;;;;;;26.04;52.74;101586.06;4953777;29;20078;-79
2022/05/26 10:17:48;;;;;;;28.90;20.67;;;;;;;26.85;53.42;101723.56;4952654;28;21108;-82
2022/05/26 10:20:24;;;;;;;32.00;24.70;;;;;;;26.50;53.86;101657.69;4955042;29;20066;-80
2022/05/26 10:23:08;;;;;;;32.05;22.88;;;;;;;26.56;52.97;101682.22;4936392;29;20130;-82
2022/05/26 10:25:43;;;;;;;27.05;21.25;;;;;;;26.74;53.25;101699.72;4935390;29;20051;-80
2022/05/26 10:28:36;;;;;;;25.17;20.20;;;;;;;26.79;53.50;101703.44;4935396;29;20058;-83
2022/05/26 10:31:20;;;;;;;27.58;21.17;;;;;;;26.79;52.59;101718.97;4936032;29;20052;-81
2022/05/26 10:33:53;;;;;;;33.97;21.38;;;;;;;26.44;53.07;101656.69;4935635;29;20083;-82
2022/05/26 10:36:20;;;;;;;27.70;21.02;;;;;;;26.84;52.56;101727.31;4935779;29;20541;-82
2022/05/26 10:39:08;;;;;;;26.10;20.67;;;;;;;26.92;53.07;101732.53;4935684;29;20048;-81
2022/05/26 10:41:50;;;;;;;35.83;24.85;;;;;;;26.98;53.51;101728.91;4935741;29;20062;-82
2022/05/26 10:45:02;;;;;;;30.67;22.75;;;;;;;26.95;54.21;101733.97;4935221;29;20059;-80
2022/05/26 10:47:42;;;;;;;35.28;24.42;;;;;;;26.60;54.85;101710.69;4936399;29;20138;-81
2022/05/26 10:50:54;;;;;;;26.42;23.25;;;;;;;26.76;55.55;101730.31;4936033;29;20282;-82
2022/05/26 10:59:04;;;;;;;;;;;;;;;;;;;;;
2022/05/26 11:20:22;;;;;;;;;;;;;;;;;;;;;
2022/05/26 11:24:04;;;;;;;;;;;;;;;;;;;;;
2022/05/26 11:27:30;;;;;;;38.72;22.52;;;;;;;26.56;56.17;101697.72;6286389;22;20028;-82
2022/05/26 11:37:30;;;;;;;29.60;19.17;;;;;;;27.27;54.94;101705.69;6290940;22;20606;-82
2022/05/26 11:40:11;;;;;;;27.35;18.42;;;;;;;27.42;54.45;101650.84;6198922;22;20371;-81
2022/05/26 11:42:51;;;;;;;24.13;15.52;;;;;;;27.79;52.92;101633.72;6289874;22;20050;-82
2022/05/26 11:45:25;;;;;;;18.08;13.82;;;;;;;28.11;52.04;101661.75;6264599;22;20030;-79
2022/05/26 11:48:05;;;;;;;24.02;14.52;;;;;;;28.19;51.93;101679.72;6266142;22;20019;-81
2022/05/26 11:50:56;;;;;;;31.70;14.32;;;;;;;28.11;51.81;101661.75;6258883;22;20016;-84
2022/05/26 11:53:32;;;;;;;22.42;13.73;;;;;;;28.10;52.20;101669.06;6254241;22;20057;-82
2022/05/26 11:56:25;;;;;;;21.05;13.82;;;;;;;28.07;51.81;101650.44;6264552;22;20466;-82
2022/05/26 11:59:41;;;;;;;17.15;12.60;;;;;;;28.11;52.16;101661.75;6262223;22;20314;-82
2022/05/26 12:02:13;;;;;;;18.40;13.48;;;;;;;28.24;52.63;101656.13;6250530;22;20452;-82
2022/05/26 12:04:45;;;;;;;21.15;13.77;;;;;;;28.44;51.49;101647.66;6260595;22;20015;-80
2022/05/26 12:07:17;;;;;;;16.30;13.40;;;;;;;28.62;50.89;101663.22;6249873;22;20023;-83
2022/05/26 12:09:59;;;;;;;31.40;15.20;;;;;;;28.30;50.94;101638.84;6250406;22;20050;-82
2022/05/26 12:12:35;;;;;;;26.50;15.77;;;;;;;28.26;51.99;101644.97;6251895;22;20024;-82
2022/05/26 12:15:18;;;;;;;26.25;15.50;;;;;;;28.44;52.74;101650.41;6286404;22;20023;-83
2022/05/26 12:17:59;;;;;;;29.92;16.95;;;;;;;27.51;53.27;101525.13;6257353;22;20042;-82
2022/05/26 12:20:30;;;;;;;26.23;16.73;;;;;;;28.29;53.62;101652.69;6245518;22;20051;-83
2022/05/26 12:23:06;;;;;;;23.60;18.30;;;;;;;28.29;53.55;101659.00;6254316;22;20069;-83
2022/05/26 12:25:36;;;;;;;26.60;17.90;;;;;;;28.25;54.15;101657.75;6253357;22;20443;-83
2022/05/26 12:28:14;;;;;;;25.88;17.08;;;;;;;28.23;54.00;101651.72;6280274;22;20012;-83
2022/05/26 12:30:45;;;;;;;27.85;18.33;;;;;;;28.11;54.82;101656.28;6253265;22;20443;-80
2022/05/26 12:33:21;;;;;;;29.85;17.95;;;;;;;28.13;54.16;101656.88;6280399;22;20452;-83
2022/05/26 12:35:51;;;;;;;24.38;17.02;;;;;;;28.20;53.98;101654.91;6253570;22;20396;-83
2022/05/26 12:38:55;;;;;;;27.02;18.42;;;;;;;28.30;53.62;101652.47;6280224;22;20482;-82
2022/05/26 12:41:52;;;;;;;30.35;18.27;;;;;;;28.44;52.71;101655.84;6253510;22;20023;-85
2022/05/26 12:45:15;;;;;;;26.40;16.50;;;;;;;28.59;53.02;101647.28;6257005;22;20451;-83
2022/05/26 12:48:13;;;;;;;25.77;16.95;;;;;;;28.70;53.10;101615.63;6252195;22;20024;-82
2022/05/26 12:50:42;;;;;;;21.38;14.38;;;;;;;28.65;52.03;101542.56;6252532;22;20024;-81